Oxford, Canada
Current Conditions -  °F | °C
As of 3:00 AM on Sunday 26 Oct 2014 (Local Time) from CYQM Reporting Station
Drizzle Drizzle  
Wind Chill: 36°   Ceiling: 300
Heat Index: 39°   Visibility: 1.5mi
Dew Point: 37°   Wind: 5mph
Humidity: 93%   Direction: 230°SW
Pressure: 29.48"   Gusts: NA
Location:  45.73°N, 63.87°W
Report Text: CYQM 260600Z 23004KT 1 1/2SM -DZ BR OVC003 04/03 A2948 RMK SF8 SLP984
Loading
Personal Weather Stations






























Interactive Weather Map
Tropical Storm Tracking
New forecast layout! Learn more

10-Day Weather Forecast

Advertisements
Track Severe Weather on mobile